Aeroporto :
LOGIN :

Iscrizione | Disclaimer

   EN    FR    IT 

 










Sommario :    VFR   VFR Marginale   IFR   IFR Intensivo   IFR Molto Intensivo
Visibilità : 
Base nubi : 
>= 8 km
>= 3000ft
5 / 8 km
1000 / 3000 ft
1500m / 5 km
500 / 1000 ft
800 / 1500m
200 / 500 ft
< 800m
< 200 ft
Simboli :   Temporali  Nebbia  Neve Forte  Precipitazioni Forti  Vento > 20 kt
SIGMETs :   Varie  Temporali  Ghiacco  Turbolenza  Onda orograficha  Ceneri Vulcaniche






- Altitudine del aeroporto : 466 ft


LHPA - Pápa

ULTIMO METAR :
  • 011745Z 29002KT CAVOK 05/M10 Q1019 NOSIG RMK BLU

METARs OBSOLETI :
  • 011715Z 33004KT CAVOK 05/M10 Q1019 NOSIG RMK BLU
  • 011645Z 32004KT CAVOK 07/M09 Q1019 NOSIG RMK BLU
  • 011615Z 26004KT CAVOK 08/M10 Q1019 NOSIG RMK BLU
  • 011545Z 06004KT CAVOK 08/M11 Q1019 NOSIG RMK BLU
  • 011515Z 06002KT CAVOK 08/M12 Q1019 NOSIG RMK BLU
  • 011445Z 03006KT 300V100 CAVOK 08/M12 Q1019 NOSIG RMK BLU

TAF TAF LHPA
Valido dal 01 a 18 ore il 02 a 18 ore UTC


011715Z 0118/0218 VRB03KT CAVOK
BECMG 0119/0122 17005KT
BECMG 0206/0209 20012KT
BECMG 0215/0218 16006KT



MetMap, La meteo Aeronautica in un colpo d'occhio ! - Copyright ORBIFLY Dicembre 2007 - Disclaimer

ORBIFLY MET'MAP TEAM :

Programmazione e sviluppo : Alexandra Zaïnal
Concezione : Baudouin d'Aumeries
Aiuto per la programmazione : Marc-Olivier Méhu
Supporto tecnico e logistico : Manuel Goepfert
Aiuto per la traduzione : Arnaldo La Scala

Contatto : metmap@orbifly.com




FONTI E CREDITI :

   NOAA